Time;durP1;ratioP1;P1;durP2;ratioP2;P2;SDS_P1;SDS_P2;PMS_P1;PMS_P2;Temp;Humidity;BMP_temperature;BMP_pressure;BME280_temperature;BME280_humidity;BME280_pressure;Samples;Min_cycle;Max_cycle;Signal;HPM_P1;HPM_P2
2021/04/26 00:02:16;;;;;;;7.70;2.10;;;6.70;99.90;;;;;;5018214;28;20053;-84
2021/04/26 00:04:42;;;;;;;5.90;2.35;;;6.70;99.90;;;;;;5018049;28;20054;-84
2021/04/26 00:07:09;;;;;;;10.65;2.03;;;6.60;99.90;;;;;;5017687;28;20062;-84
2021/04/26 00:09:36;;;;;;;7.45;1.88;;;6.60;99.90;;;;;;5017907;28;20103;-85
2021/04/26 00:12:03;;;;;;;6.32;2.17;;;6.50;99.90;;;;;;5017710;28;20056;-84
2021/04/26 00:14:30;;;;;;;6.05;1.95;;;6.50;99.90;;;;;;5017536;28;20454;-84
2021/04/26 00:16:56;;;;;;;4.65;2.15;;;6.50;99.90;;;;;;5017229;28;20050;-84
2021/04/26 00:19:23;;;;;;;4.05;2.22;;;6.40;99.90;;;;;;5016852;28;20477;-84
2021/04/26 00:21:50;;;;;;;4.13;1.38;;;6.40;99.90;;;;;;5017930;28;20058;-83
2021/04/26 00:24:16;;;;;;;4.25;2.30;;;6.30;99.90;;;;;;5018025;28;20137;-82
2021/04/26 00:26:43;;;;;;;5.68;1.92;;;6.30;99.90;;;;;;5018569;28;20394;-83
2021/04/26 00:29:10;;;;;;;5.45;1.50;;;6.30;99.90;;;;;;5018278;28;20119;-83
2021/04/26 00:31:37;;;;;;;4.07;1.83;;;6.30;99.90;;;;;;5018857;28;20054;-83
2021/04/26 00:34:04;;;;;;;3.63;1.70;;;6.30;99.90;;;;;;5018180;28;20387;-82
2021/04/26 00:36:31;;;;;;;4.10;1.42;;;6.30;99.90;;;;;;5018651;28;20054;-83
2021/04/26 00:38:57;;;;;;;4.28;1.77;;;6.40;99.90;;;;;;5018589;28;20420;-83
2021/04/26 00:41:24;;;;;;;5.40;2.22;;;6.40;99.90;;;;;;5018341;28;20050;-83
2021/04/26 00:43:50;;;;;;;6.45;2.03;;;6.40;99.90;;;;;;5018883;28;20062;-83
2021/04/26 00:46:18;;;;;;;5.63;2.25;;;6.30;99.90;;;;;;5019174;28;20049;-82
2021/04/26 00:48:44;;;;;;;3.72;1.55;;;6.30;99.90;;;;;;5020155;28;20064;-82
2021/04/26 00:51:11;;;;;;;7.45;1.92;;;6.30;99.90;;;;;;5019565;28;20115;-82
2021/04/26 00:53:37;;;;;;;6.07;1.90;;;6.30;99.90;;;;;;5021578;28;20058;-82
2021/04/26 00:56:05;;;;;;;3.83;1.65;;;6.30;99.90;;;;;;5020264;28;20109;-83
2021/04/26 00:58:31;;;;;;;3.85;1.42;;;6.30;99.90;;;;;;5019260;28;20054;-81
2021/04/26 01:00:59;;;;;;;3.90;1.52;;;6.30;99.90;;;;;;5020594;28;20050;-83
2021/04/26 01:03:26;;;;;;;3.72;1.30;;;6.30;99.90;;;;;;5019879;28;20046;-82
2021/04/26 01:05:53;;;;;;;5.07;2.67;;;6.30;99.90;;;;;;5021130;28;20056;-82
2021/04/26 01:08:19;;;;;;;7.53;1.85;;;6.30;99.90;;;;;;5022958;28;20062;-82
2021/04/26 01:10:46;;;;;;;3.47;1.38;;;6.20;99.90;;;;;;5021195;28;20382;-82
2021/04/26 01:13:34;;;;;;;3.33;1.33;;;6.20;99.90;;;;;;5021101;28;20054;-82
2021/04/26 01:16:06;;;;;;;3.13;1.52;;;6.20;99.90;;;;;;5019738;28;20064;-83
2021/04/26 01:18:38;;;;;;;11.75;2.17;;;6.20;99.90;;;;;;5022576;28;20046;-82
2021/04/26 01:21:36;;;;;;;4.63;2.13;;;6.10;99.90;;;;;;5025078;28;20080;-83
2021/04/26 01:24:40;;;;;;;4.43;1.25;;;6.10;99.90;;;;;;5030199;28;20046;-82
2021/04/26 01:27:10;;;;;;;4.65;1.60;;;6.10;99.90;;;;;;5034272;28;20429;-82
2021/04/26 01:29:49;;;;;;;4.55;2.55;;;6.00;99.90;;;;;;5036494;28;20041;-82
2021/04/26 01:32:23;;;;;;;5.15;1.27;;;6.00;99.90;;;;;;5038578;28;20077;-81
2021/04/26 01:34:49;;;;;;;3.78;1.48;;;6.00;99.90;;;;;;5038065;28;20056;-82
2021/04/26 01:37:16;;;;;;;4.28;2.30;;;5.90;99.90;;;;;;5038383;28;20068;-81
2021/04/26 01:39:42;;;;;;;2.83;1.42;;;5.90;99.90;;;;;;5039720;28;20098;-82
2021/04/26 01:42:10;;;;;;;3.55;2.00;;;5.90;99.90;;;;;;5038137;28;20110;-81
2021/04/26 01:44:36;;;;;;;2.90;1.58;;;5.90;99.90;;;;;;5036583;28;20053;-82
2021/04/26 01:47:03;;;;;;;3.22;1.35;;;5.90;99.90;;;;;;5037730;28;20125;-82
2021/04/26 01:49:31;;;;;;;5.43;2.88;;;5.80;99.90;;;;;;5038180;28;20045;-81
2021/04/26 01:51:57;;;;;;;3.65;1.65;;;5.80;99.90;;;;;;5037744;28;20109;-82
2021/04/26 01:54:24;;;;;;;2.78;1.23;;;5.70;99.90;;;;;;5038627;28;20134;-82
2021/04/26 01:56:51;;;;;;;6.20;2.00;;;5.60;99.90;;;;;;5038293;28;20490;-82
2021/04/26 01:59:17;;;;;;;6.60;1.60;;;5.60;99.90;;;;;;5038379;28;20110;-81
2021/04/26 02:01:44;;;;;;;3.28;1.20;;;5.50;99.90;;;;;;5039267;28;20064;-81
2021/04/26 02:24:58;;;;;;;2.90;1.55;;;5.10;99.90;;;;;;5720299;23;19985;-83
2021/04/26 02:27:24;;;;;;;4.07;2.20;;;5.10;99.90;;;;;;5039590;28;20082;-83
2021/04/26 02:29:52;;;;;;;3.25;1.63;;;5.00;99.90;;;;;;5039611;28;20109;-83
2021/04/26 02:32:21;;;;;;;5.53;1.58;;;5.00;99.90;;;;;;5039598;28;20034;-83
2021/04/26 02:34:48;;;;;;;4.90;1.65;;;5.00;99.90;;;;;;5039351;28;20117;-81
2021/04/26 02:42:27;;;;;;;1.98;1.23;;;5.00;99.90;;;;;;5583103;23;20062;-81
2021/04/26 02:44:54;;;;;;;4.38;1.48;;;5.10;99.90;;;;;;5039017;28;20081;-81
2021/04/26 02:47:20;;;;;;;4.55;1.40;;;5.00;99.90;;;;;;5038715;28;20086;-81
2021/04/26 02:49:47;;;;;;;3.60;1.88;;;5.10;99.90;;;;;;5038892;28;20038;-82
2021/04/26 02:52:14;;;;;;;6.80;2.38;;;5.00;99.90;;;;;;5039210;28;20083;-82
2021/04/26 02:54:40;;;;;;;2.53;1.52;;;5.00;99.90;;;;;;5038966;28;20178;-81
2021/04/26 02:57:07;;;;;;;6.63;2.22;;;5.00;99.90;;;;;;5038711;28;20105;-82
2021/04/26 02:59:35;;;;;;;4.30;1.48;;;4.90;99.90;;;;;;5039175;28;20084;-82
2021/04/26 03:02:02;;;;;;;2.05;1.27;;;4.90;99.90;;;;;;5039023;28;20090;-82
2021/04/26 03:04:29;;;;;;;2.65;1.20;;;4.90;99.90;;;;;;5039079;28;20137;-82
2021/04/26 03:06:56;;;;;;;2.97;1.67;;;4.80;99.90;;;;;;5039031;28;20030;-82
2021/04/26 03:09:22;;;;;;;3.50;1.63;;;4.80;99.90;;;;;;5039076;28;20106;-82
2021/04/26 03:11:49;;;;;;;4.13;1.20;;;4.80;99.90;;;;;;5039047;28;20109;-82
2021/04/26 03:14:16;;;;;;;6.57;1.35;;;4.80;99.90;;;;;;5039015;28;20085;-82
2021/04/26 03:21:56;;;;;;;9.27;2.17;;;4.70;99.90;;;;;;5810444;23;20026;-82
2021/04/26 03:24:22;;;;;;;7.28;2.60;;;;;;;;;;5042925;28;20102;-81
2021/04/26 03:26:50;;;;;;;5.28;2.45;;;4.60;99.90;;;;;;5042840;28;20105;-81
2021/04/26 03:29:17;;;;;;;2.95;1.42;;;4.90;99.90;;;;;;5042461;28;20042;-81
2021/04/26 03:31:44;;;;;;;5.25;1.80;;;;;;;;;;5041722;28;20101;-81
2021/04/26 03:34:11;;;;;;;3.35;1.27;;;4.40;99.90;;;;;;5041627;28;20096;-81
2021/04/26 03:36:38;;;;;;;4.47;1.30;;;;;;;;;;5041115;28;20065;-81
2021/04/26 03:39:07;;;;;;;3.15;1.40;;;4.40;99.90;;;;;;5041775;28;20081;-81
2021/04/26 03:41:34;;;;;;;3.13;1.30;;;4.30;99.90;;;;;;5041414;28;20034;-81
2021/04/26 03:44:00;;;;;;;3.88;1.45;;;;;;;;;;5041843;28;20093;-81
2021/04/26 03:46:27;;;;;;;4.60;1.65;;;;;;;;;;5041878;28;20053;-81
2021/04/26 03:48:54;;;;;;;2.15;1.20;;;;;;;;;;5041434;28;20114;-81
2021/04/26 03:51:21;;;;;;;3.13;1.63;;;;;;;;;;5042289;28;20050;-81
2021/04/26 03:53:48;;;;;;;6.00;1.63;;;;;;;;;;5041873;28;20097;-81
2021/04/26 06:03:29;;;;;;;9.18;4.30;;;4.50;99.90;;;;;;5277652;23;20460;-81
2021/04/26 06:05:56;;;;;;;7.63;3.17;;;;;;;;;;5039507;28;20034;-81
2021/04/26 06:21:46;;;;;;;9.93;3.88;;;5.20;99.90;;;;;;4994862;26;20043;-81
2021/04/26 06:24:13;;;;;;;14.30;3.25;;;5.30;99.90;;;;;;5153783;23;20049;-80
2021/04/26 06:26:39;;;;;;;9.88;3.80;;;5.40;99.90;;;;;;5034708;28;20068;-79
2021/04/26 06:29:06;;;;;;;13.38;3.20;;;5.40;99.90;;;;;;5035122;28;20057;-80
2021/04/26 06:31:33;;;;;;;8.52;3.45;;;5.50;99.90;;;;;;5034915;28;20056;-80
2021/04/26 06:33:59;;;;;;;7.50;2.42;;;5.60;99.90;;;;;;5034686;28;20064;-79
2021/04/26 06:36:26;;;;;;;4.65;2.70;;;5.60;99.90;;;;;;5034922;28;20458;-79
2021/04/26 06:38:53;;;;;;;8.55;3.92;;;5.70;99.90;;;;;;5034539;28;20059;-79
2021/04/26 06:41:20;;;;;;;8.32;3.88;;;5.80;99.90;;;;;;5035027;28;20060;-79
2021/04/26 06:43:47;;;;;;;5.25;2.22;;;5.80;99.90;;;;;;5034641;28;20148;-79
2021/04/26 06:46:13;;;;;;;5.43;2.78;;;5.90;99.90;;;;;;5034909;28;20107;-79
2021/04/26 06:48:40;;;;;;;10.45;2.65;;;6.00;99.90;;;;;;5034758;28;20045;-80
2021/04/26 06:51:06;;;;;;;8.23;2.40;;;6.10;99.90;;;;;;5033665;28;20060;-79
2021/04/26 06:53:33;;;;;;;5.07;2.78;;;6.20;99.90;;;;;;5034659;28;20057;-79
2021/04/26 06:56:00;;;;;;;5.40;2.80;;;6.20;99.90;;;;;;5034645;28;20049;-79
2021/04/26 06:58:27;;;;;;;3.95;1.90;;;6.30;99.90;;;;;;5034405;28;20045;-79
2021/04/26 07:00:53;;;;;;;5.82;1.50;;;6.40;99.90;;;;;;5034730;28;20124;-80
2021/04/26 07:03:20;;;;;;;3.78;1.95;;;6.60;99.90;;;;;;5034665;28;20049;-79
2021/04/26 07:05:47;;;;;;;8.23;1.75;;;6.70;99.90;;;;;;5034224;28;20049;-80
2021/04/26 07:08:13;;;;;;;2.83;1.35;;;6.90;99.90;;;;;;5034469;28;20053;-80
2021/04/26 07:10:40;;;;;;;3.80;2.10;;;7.20;99.90;;;;;;5034476;28;20049;-80
2021/04/26 07:16:45;;;;;;;3.88;2.03;;;7.80;99.90;;;;;;5034477;28;20530;-81
2021/04/26 07:19:49;;;;;;;4.00;1.67;;;8.60;99.90;;;;;;5034243;28;20448;-81
2021/04/26 07:22:15;;;;;;;2.58;1.35;;;10.90;99.90;;;;;;5034630;28;20132;-80
2021/04/26 07:24:42;;;;;;;1.80;1.30;;;13.90;99.90;;;;;;5033895;28;20122;-79
2021/04/26 07:27:08;;;;;;;1.75;1.00;;;16.90;99.90;;;;;;5034272;28;20045;-78
2021/04/26 07:29:35;;;;;;;2.58;0.93;;;19.10;86.50;;;;;;5033828;28;20049;-79
2021/04/26 07:32:02;;;;;;;0.93;0.60;;;20.50;62.60;;;;;;5034127;28;20045;-79
2021/04/26 07:34:29;;;;;;;2.28;0.90;;;21.20;59.90;;;;;;5034484;28;20095;-79
2021/04/26 07:36:56;;;;;;;2.58;1.33;;;21.30;56.10;;;;;;5034176;28;20052;-79
2021/04/26 07:39:22;;;;;;;1.42;0.88;;;21.40;58.10;;;;;;5034314;28;20052;-79
2021/04/26 07:41:49;;;;;;;2.22;0.90;;;21.20;58.20;;;;;;5034174;28;20106;-79
2021/04/26 07:44:15;;;;;;;1.33;0.80;;;20.40;53.10;;;;;;5034182;28;20496;-79
2021/04/26 07:46:42;;;;;;;1.80;1.00;;;19.70;56.80;;;;;;5034333;28;20064;-78
2021/04/26 07:49:09;;;;;;;2.15;1.10;;;19.30;54.50;;;;;;5033930;28;20111;-79
2021/04/26 07:51:36;;;;;;;1.55;0.60;;;19.20;57.60;;;;;;5033959;28;20385;-79
2021/04/26 07:54:03;;;;;;;2.03;1.13;;;19.50;57.50;;;;;;5034252;28;20053;-78
2021/04/26 07:56:31;;;;;;;2.13;0.90;;;19.70;53.80;;;;;;5033983;28;20385;-79
2021/04/26 07:58:57;;;;;;;1.00;0.60;;;18.80;52.50;;;;;;5033892;28;20049;-78
2021/04/26 08:01:24;;;;;;;4.82;1.35;;;17.30;54.20;;;;;;5033845;28;20053;-78
2021/04/26 08:03:51;;;;;;;3.80;1.40;;;16.00;58.90;;;;;;5033986;28;20462;-78
2021/04/26 08:06:18;;;;;;;2.50;1.00;;;14.80;62.10;;;;;;5034848;28;20072;-78
2021/04/26 08:08:45;;;;;;;1.30;0.75;;;13.90;68.90;;;;;;5037814;28;20049;-78
2021/04/26 08:11:11;;;;;;;2.15;1.00;;;13.20;76.40;;;;;;5037406;28;20056;-79
2021/04/26 08:13:38;;;;;;;1.58;1.17;;;12.70;83.60;;;;;;5037643;28;20118;-80
2021/04/26 08:16:05;;;;;;;3.55;1.30;;;12.10;91.90;;;;;;5037743;28;20060;-78
2021/04/26 08:18:31;;;;;;;2.08;0.90;;;11.60;94.90;;;;;;5037495;28;20054;-81
2021/04/26 08:20:58;;;;;;;2.45;1.02;;;11.30;97.20;;;;;;5037317;28;20053;-84
2021/04/26 08:23:26;;;;;;;4.82;1.58;;;11.20;99.00;;;;;;5036939;28;20053;-82
2021/04/26 08:25:52;;;;;;;2.35;0.90;;;11.10;98.40;;;;;;5037469;28;20050;-87
2021/04/26 08:28:19;;;;;;;1.80;1.25;;;11.10;99.90;;;;;;5037298;28;20465;-85
2021/04/26 08:30:46;;;;;;;2.17;1.38;;;11.10;99.80;;;;;;5037121;28;20458;-85
2021/04/26 08:33:13;;;;;;;3.30;1.27;;;11.20;99.30;;;;;;5037162;28;20454;-85
2021/04/26 08:35:39;;;;;;;1.75;1.38;;;11.10;99.50;;;;;;5037334;28;20054;-85
2021/04/26 08:38:06;;;;;;;2.35;0.98;;;11.00;98.70;;;;;;5037224;28;20072;-85
2021/04/26 08:40:34;;;;;;;2.33;1.27;;;10.90;99.10;;;;;;5036993;28;20095;-85
2021/04/26 08:43:03;;;;;;;1.17;0.80;;;10.90;99.90;;;;;;5037088;28;20049;-85
2021/04/26 08:45:30;;;;;;;2.45;1.55;;;10.80;99.90;;;;;;5036777;28;20056;-86
2021/04/26 08:47:57;;;;;;;4.35;2.08;;;10.70;99.90;;;;;;5036937;28;20049;-85
2021/04/26 08:50:24;;;;;;;3.83;1.30;;;10.80;99.90;;;;;;5036750;28;20046;-84
2021/04/26 08:52:51;;;;;;;2.25;1.20;;;10.80;99.90;;;;;;5036594;28;20049;-84
2021/04/26 08:55:18;;;;;;;2.17;1.02;;;10.90;99.90;;;;;;5036601;28;20523;-84
2021/04/26 08:57:46;;;;;;;2.30;1.05;;;11.00;99.90;;;;;;5036991;28;20123;-84
2021/04/26 09:00:13;;;;;;;0.82;0.82;;;11.00;98.70;;;;;;5036777;28;20056;-85
2021/04/26 09:02:44;;;;;;;3.80;1.05;;;11.00;99.90;;;;;;5036611;28;20045;-84
2021/04/26 09:05:22;;;;;;;4.47;1.25;;;11.00;99.90;;;;;;5036437;28;20053;-84
2021/04/26 09:07:50;;;;;;;1.92;1.20;;;11.00;99.10;;;;;;5036677;28;20340;-84
2021/04/26 09:10:17;;;;;;;2.47;1.45;;;10.90;99.00;;;;;;5036495;28;20055;-85
2021/04/26 09:12:43;;;;;;;2.72;1.35;;;10.80;99.80;;;;;;5036385;28;20049;-85
2021/04/26 09:15:12;;;;;;;2.97;1.80;;;10.80;99.90;;;;;;5036359;28;20114;-85
2021/04/26 09:17:39;;;;;;;3.28;1.80;;;10.70;99.90;;;;;;5036038;28;20053;-85
2021/04/26 09:20:23;;;;;;;2.28;1.13;;;10.60;99.90;;;;;;5036110;28;20083;-85
2021/04/26 09:22:50;;;;;;;1.90;1.38;;;10.50;99.90;;;;;;5036441;28;20065;-85
2021/04/26 09:25:28;;;;;;;2.00;1.20;;;10.40;99.90;;;;;;5036010;28;20064;-85
2021/04/26 09:27:56;;;;;;;2.20;1.40;;;10.30;99.90;;;;;;5036158;28;20045;-84
2021/04/26 09:30:51;;;;;;;3.42;1.20;;;10.30;99.90;;;;;;5035994;28;20139;-85
2021/04/26 09:33:29;;;;;;;2.40;1.37;;;10.30;99.90;;;;;;4937188;29;20487;-86
2021/04/26 09:36:12;;;;;;;2.53;1.48;;;10.20;99.90;;;;;;4937097;29;20764;-86
2021/04/26 09:38:39;;;;;;;3.10;1.40;;;10.20;99.90;;;;;;4936887;29;20051;-84
2021/04/26 09:41:20;;;;;;;3.45;1.80;;;10.20;99.90;;;;;;4937016;29;20055;-85
2021/04/26 09:43:49;;;;;;;6.85;1.58;;;10.30;99.90;;;;;;4936903;29;20054;-85
2021/04/26 09:46:17;;;;;;;5.60;2.25;;;10.30;99.90;;;;;;4936978;29;20060;-85
2021/04/26 09:48:43;;;;;;;4.07;1.95;;;10.30;99.90;;;;;;4936885;29;20613;-88
2021/04/26 09:51:13;;;;;;;3.42;1.88;;;10.30;99.90;;;;;;4936623;29;20408;-86
2021/04/26 09:53:49;;;;;;;6.03;2.08;;;10.30;99.90;;;;;;4936585;29;20059;-85
2021/04/26 09:56:16;;;;;;;5.75;2.08;;;10.30;99.90;;;;;;4936650;29;20142;-85
2021/04/26 09:58:44;;;;;;;3.58;2.10;;;10.30;99.90;;;;;;4936633;29;20057;-85
2021/04/26 10:01:10;;;;;;;6.13;2.10;;;10.40;99.90;;;;;;4936618;29;20058;-84
2021/04/26 10:03:38;;;;;;;4.03;2.22;;;10.40;99.90;;;;;;4936572;29;20085;-85
2021/04/26 10:06:05;;;;;;;3.55;2.03;;;10.40;99.90;;;;;;4936464;29;20060;-85
2021/04/26 10:08:32;;;;;;;5.35;1.95;;;10.50;99.90;;;;;;4969366;28;20049;-85
2021/04/26 10:10:58;;;;;;;8.13;2.60;;;10.50;99.90;;;;;;5034996;28;20424;-85
2021/04/26 10:13:25;;;;;;;2.20;1.45;;;10.50;99.90;;;;;;5035487;28;20060;-85
2021/04/26 10:15:56;;;;;;;5.18;2.33;;;10.50;99.90;;;;;;5035416;28;20060;-85
2021/04/26 10:18:27;;;;;;;4.13;1.90;;;10.60;99.90;;;;;;5035123;28;20060;-85
2021/04/26 10:20:55;;;;;;;3.67;2.28;;;10.60;99.90;;;;;;5035314;28;20041;-85
2021/04/26 10:23:38;;;;;;;14.82;1.65;;;10.70;99.90;;;;;;5035201;28;20064;-85
2021/04/26 10:26:05;;;;;;;2.75;1.63;;;10.60;99.90;;;;;;5035314;28;20450;-85
2021/04/26 10:28:32;;;;;;;4.68;1.75;;;10.60;99.90;;;;;;5034515;28;20049;-85
2021/04/26 10:31:13;;;;;;;7.13;2.53;;;10.70;99.90;;;;;;5034677;28;20049;-87
2021/04/26 10:34:07;;;;;;;2.53;1.80;;;10.70;99.90;;;;;;5034821;28;20053;-85
2021/04/26 10:36:45;;;;;;;3.35;2.28;;;10.80;99.90;;;;;;5034850;28;20141;-85
2021/04/26 10:39:13;;;;;;;4.85;2.10;;;10.80;99.90;;;;;;5034752;28;20057;-85
2021/04/26 10:41:59;;;;;;;2.83;2.00;;;10.80;99.90;;;;;;5035164;28;20050;-86
2021/04/26 10:44:49;;;;;;;4.18;2.17;;;10.70;99.90;;;;;;5034995;28;20081;-86
2021/04/26 10:47:22;;;;;;;4.15;1.75;;;10.80;99.90;;;;;;5034593;28;20045;-85
2021/04/26 10:49:50;;;;;;;4.97;1.95;;;10.80;99.90;;;;;;5034163;28;20458;-85
2021/04/26 10:52:39;;;;;;;5.05;1.83;;;10.70;99.90;;;;;;5034863;28;20063;-85
2021/04/26 10:55:08;;;;;;;3.65;1.65;;;10.80;99.90;;;;;;5027380;28;20053;-85
2021/04/26 10:57:37;;;;;;;3.30;1.65;;;10.80;99.90;;;;;;5034610;28;20053;-85
2021/04/26 11:00:41;;;;;;;4.32;2.03;;;10.80;99.90;;;;;;5034771;28;20124;-86
2021/04/26 11:03:38;;;;;;;4.43;1.50;;;10.90;99.90;;;;;;5034475;28;20062;-85
2021/04/26 11:06:15;;;;;;;3.72;1.83;;;10.90;99.90;;;;;;5034431;28;20068;-85
2021/04/26 11:08:46;;;;;;;3.50;1.58;;;10.90;99.90;;;;;;5034241;28;20049;-85
2021/04/26 11:11:15;;;;;;;4.80;1.55;;;10.90;99.90;;;;;;5033602;28;20046;-85
2021/04/26 11:13:53;;;;;;;2.88;1.15;;;10.80;99.90;;;;;;5034753;28;20045;-85
2021/04/26 11:16:20;;;;;;;7.18;1.35;;;10.80;99.90;;;;;;5034394;28;20053;-84
2021/04/26 11:19:04;;;;;;;3.00;2.00;;;10.90;99.90;;;;;;5036784;28;20059;-85
2021/04/26 11:22:00;;;;;;;5.07;2.78;;;10.90;99.90;;;;;;5036860;28;20048;-85
2021/04/26 11:25:04;;;;;;;4.25;2.30;;;10.90;99.90;;;;;;5034164;28;20517;-83
2021/04/26 11:27:32;;;;;;;3.03;1.20;;;10.90;99.90;;;;;;5036331;28;20053;-83
2021/04/26 11:30:21;;;;;;;4.15;1.95;;;10.90;99.90;;;;;;5034157;28;20049;-83
2021/04/26 11:33:15;;;;;;;2.42;1.25;;;10.90;99.90;;;;;;5034583;28;20053;-84
2021/04/26 11:36:07;;;;;;;8.63;1.95;;;11.00;99.90;;;;;;5034584;28;20147;-86
2021/04/26 11:38:34;;;;;;;13.68;2.15;;;11.00;99.90;;;;;;5035218;28;20476;-81
2021/04/26 11:41:02;;;;;;;2.88;1.35;;;11.10;99.90;;;;;;5037197;28;20477;-86
2021/04/26 11:43:29;;;;;;;4.55;2.13;;;11.20;98.40;;;;;;5041079;28;20079;-86
2021/04/26 11:45:56;;;;;;;3.58;1.58;;;11.30;99.10;;;;;;5038696;28;20053;-83
2021/04/26 11:48:23;;;;;;;9.35;1.33;;;11.40;97.40;;;;;;5037915;28;20050;-85
2021/04/26 11:50:49;;;;;;;4.97;1.60;;;11.40;97.80;;;;;;5037813;28;20049;-82
2021/04/26 11:53:26;;;;;;;7.75;2.22;;;11.40;96.50;;;;;;5037962;28;20424;-82
2021/04/26 11:55:53;;;;;;;4.57;2.42;;;11.50;98.70;;;;;;5037782;28;20049;-83
2021/04/26 11:58:25;;;;;;;4.93;2.63;;;11.50;97.40;;;;;;5036904;28;20049;-83
2021/04/26 12:00:52;;;;;;;3.42;2.13;;;11.60;97.00;;;;;;5037579;28;20049;-82
2021/04/26 12:03:19;;;;;;;3.63;1.90;;;11.60;98.20;;;;;;5037631;28;20138;-82
2021/04/26 12:05:46;;;;;;;2.95;1.30;;;11.60;96.10;;;;;;5037935;28;20099;-83
2021/04/26 12:08:12;;;;;;;4.60;1.75;;;11.60;97.20;;;;;;5037625;28;20049;-83
2021/04/26 12:10:41;;;;;;;4.13;1.23;;;11.70;97.00;;;;;;5037540;28;20053;-83
2021/04/26 12:13:07;;;;;;;2.13;1.67;;;11.80;97.30;;;;;;5037421;28;20064;-83
2021/04/26 12:15:36;;;;;;;3.90;1.35;;;11.90;98.10;;;;;;5037405;28;20063;-81
2021/04/26 12:18:03;;;;;;;7.75;2.13;;;12.00;99.40;;;;;;5037657;28;20115;-83
2021/04/26 12:20:30;;;;;;;4.03;2.00;;;12.00;99.00;;;;;;5037268;28;20078;-82
2021/04/26 12:22:58;;;;;;;3.53;1.80;;;12.00;98.60;;;;;;5037264;28;20049;-83
2021/04/26 12:25:28;;;;;;;4.40;1.52;;;12.10;97.80;;;;;;5037144;28;20119;-83
2021/04/26 12:28:01;;;;;;;3.33;1.67;;;12.10;96.30;;;;;;5037395;28;20057;-83
2021/04/26 12:30:28;;;;;;;3.33;1.65;;;12.20;97.70;;;;;;5037000;28;20046;-83
2021/04/26 12:32:57;;;;;;;1.90;1.27;;;12.30;95.70;;;;;;5037312;28;20102;-82
2021/04/26 12:35:27;;;;;;;4.78;1.90;;;12.30;92.30;;;;;;5037066;28;20537;-83
2021/04/26 12:37:54;;;;;;;3.00;1.52;;;12.30;92.20;;;;;;5037191;28;20049;-83
2021/04/26 12:40:22;;;;;;;2.25;1.23;;;12.30;94.70;;;;;;5036946;28;20463;-83
2021/04/26 12:42:50;;;;;;;2.63;1.40;;;12.40;94.40;;;;;;5036826;28;20045;-84
2021/04/26 12:45:21;;;;;;;5.70;1.50;;;12.30;93.60;;;;;;5037132;28;20049;-81
2021/04/26 12:47:56;;;;;;;3.65;1.73;;;12.30;94.20;;;;;;5037043;28;20049;-82
2021/04/26 12:50:25;;;;;;;1.52;1.38;;;12.30;95.50;;;;;;5036871;28;20106;-83
2021/04/26 12:53:12;;;;;;;3.88;1.55;;;12.30;94.10;;;;;;5036042;28;20053;-83
2021/04/26 12:55:40;;;;;;;3.25;1.48;;;12.20;96.10;;;;;;5036681;28;20053;-80
2021/04/26 12:58:11;;;;;;;2.67;1.13;;;12.20;96.30;;;;;;5036538;28;20487;-80
2021/04/26 13:00:39;;;;;;;2.13;1.40;;;12.20;95.50;;;;;;5036804;28;20055;-83
2021/04/26 13:03:37;;;;;;;2.97;1.63;;;12.20;94.50;;;;;;5036808;28;20060;-82
2021/04/26 13:06:05;;;;;;;1.92;1.23;;;12.20;94.30;;;;;;5036820;28;20128;-82
2021/04/26 13:08:32;;;;;;;3.58;1.50;;;12.20;94.80;;;;;;5036680;28;20120;-83
2021/04/26 13:11:00;;;;;;;3.25;1.95;;;12.10;97.30;;;;;;5036359;28;20045;-81
2021/04/26 13:13:26;;;;;;;1.98;1.33;;;12.20;96.50;;;;;;5036228;28;20060;-83
2021/04/26 13:15:53;;;;;;;4.93;2.00;;;12.20;95.70;;;;;;5036548;28;20057;-81
2021/04/26 13:18:21;;;;;;;4.45;1.40;;;12.30;96.60;;;;;;5036030;28;20045;-87
2021/04/26 13:20:50;;;;;;;3.08;1.20;;;12.40;94.50;;;;;;5036223;28;20378;-81
2021/04/26 13:23:21;;;;;;;5.78;1.58;;;12.40;92.30;;;;;;5036532;28;20053;-81
2021/04/26 13:25:48;;;;;;;3.33;1.80;;;12.50;96.00;;;;;;5035856;28;20371;-85
2021/04/26 13:28:28;;;;;;;3.28;1.70;;;12.50;95.20;;;;;;5036073;28;20059;-83
2021/04/26 13:30:56;;;;;;;5.90;2.03;;;12.50;94.80;;;;;;5035856;28;20049;-82
2021/04/26 13:33:22;;;;;;;3.47;1.67;;;12.50;93.90;;;;;;5036242;28;20087;-82
2021/04/26 13:35:51;;;;;;;7.78;1.70;;;12.60;94.00;;;;;;5036104;28;20056;-83
2021/04/26 13:38:18;;;;;;;3.20;1.55;;;12.70;94.90;;;;;;5036003;28;20072;-83
2021/04/26 13:40:46;;;;;;;3.17;1.92;;;12.70;93.40;;;;;;5035773;28;20474;-84
2021/04/26 13:43:13;;;;;;;2.40;1.95;;;12.70;92.20;;;;;;5035564;28;20085;-82
2021/04/26 13:45:40;;;;;;;5.70;1.58;;;12.80;91.50;;;;;;5035650;28;20049;-80
2021/04/26 13:48:07;;;;;;;5.95;2.03;;;12.80;91.10;;;;;;5035946;28;20053;-81
2021/04/26 13:50:34;;;;;;;4.38;1.63;;;12.90;92.10;;;;;;5035899;28;20045;-82
2021/04/26 13:53:01;;;;;;;4.20;1.80;;;13.00;92.60;;;;;;5035767;28;20111;-81
2021/04/26 13:55:28;;;;;;;3.35;1.58;;;13.00;91.20;;;;;;5035639;28;20049;-83
2021/04/26 13:57:54;;;;;;;2.70;1.35;;;13.00;86.10;;;;;;5035756;28;20056;-83
2021/04/26 14:00:21;;;;;;;5.35;2.10;;;13.00;82.10;;;;;;5034964;28;20060;-83
2021/04/26 14:02:48;;;;;;;2.30;1.67;;;13.00;85.40;;;;;;5035362;28;20351;-83
2021/04/26 14:05:15;;;;;;;2.55;1.45;;;12.90;88.40;;;;;;5034637;28;20481;-83
2021/04/26 14:07:42;;;;;;;2.00;1.33;;;12.80;83.30;;;;;;5035726;28;20072;-83
2021/04/26 14:10:10;;;;;;;3.47;1.65;;;12.70;83.70;;;;;;5034863;28;20046;-83
2021/04/26 14:12:37;;;;;;;2.70;1.40;;;12.60;89.10;;;;;;5034857;28;20064;-83
2021/04/26 14:15:05;;;;;;;2.83;1.45;;;12.60;88.10;;;;;;5035447;28;20132;-83
2021/04/26 14:17:32;;;;;;;1.85;1.08;;;12.60;91.60;;;;;;5035074;28;20049;-83
2021/04/26 14:19:59;;;;;;;3.33;1.55;;;12.60;91.00;;;;;;5034873;28;20050;-84
2021/04/26 14:22:25;;;;;;;2.92;1.52;;;12.70;89.90;;;;;;5034903;28;20055;-84
2021/04/26 14:24:52;;;;;;;5.72;1.38;;;12.80;83.90;;;;;;5033017;28;20373;-83
2021/04/26 14:27:19;;;;;;;3.33;1.77;;;12.80;87.30;;;;;;5033085;28;20049;-83
2021/04/26 14:29:46;;;;;;;2.97;1.88;;;12.90;83.00;;;;;;5034759;28;20131;-84
2021/04/26 14:32:13;;;;;;;4.45;2.00;;;13.00;81.40;;;;;;5034275;28;20056;-84
2021/04/26 14:34:39;;;;;;;4.13;1.92;;;12.90;80.70;;;;;;5034853;28;20532;-84
2021/04/26 14:37:06;;;;;;;2.53;1.30;;;12.90;78.10;;;;;;5033603;28;20064;-84
2021/04/26 14:39:32;;;;;;;4.80;1.88;;;12.80;83.00;;;;;;5034930;28;20049;-83
2021/04/26 14:42:01;;;;;;;5.00;2.08;;;12.80;86.50;;;;;;5034718;28;20079;-84
2021/04/26 14:44:29;;;;;;;4.65;2.28;;;12.90;91.30;;;;;;5035018;28;20115;-83
2021/04/26 14:46:55;;;;;;;4.50;2.30;;;12.90;91.40;;;;;;5034691;28;20057;-83
2021/04/26 14:49:22;;;;;;;5.93;1.75;;;13.00;92.60;;;;;;5034630;28;20385;-83
2021/04/26 14:51:48;;;;;;;5.47;2.58;;;13.10;95.10;;;;;;5034522;28;20050;-83
2021/04/26 14:54:15;;;;;;;3.53;2.40;;;13.20;92.50;;;;;;5034906;28;20481;-83
2021/04/26 14:56:42;;;;;;;4.63;2.97;;;13.30;91.80;;;;;;5034625;28;20053;-83
2021/04/26 14:59:08;;;;;;;3.95;2.35;;;13.40;92.90;;;;;;5034539;28;20528;-83
2021/04/26 15:01:36;;;;;;;5.72;1.70;;;13.50;94.90;;;;;;5034497;28;20450;-83
2021/04/26 15:04:02;;;;;;;3.33;1.98;;;13.60;93.90;;;;;;5034737;28;20389;-83
2021/04/26 15:06:29;;;;;;;7.38;2.30;;;13.70;90.20;;;;;;5034446;28;20057;-83
2021/04/26 15:08:56;;;;;;;4.55;1.88;;;13.80;84.80;;;;;;5034418;28;20136;-83
2021/04/26 15:11:22;;;;;;;7.00;2.67;;;13.90;83.40;;;;;;5034592;28;20115;-83
2021/04/26 15:13:49;;;;;;;5.95;2.40;;;14.00;92.80;;;;;;5034401;28;20049;-83
2021/04/26 15:16:15;;;;;;;4.60;2.15;;;14.10;90.90;;;;;;5036837;28;20474;-83
2021/04/26 15:18:43;;;;;;;4.57;1.80;;;14.20;85.50;;;;;;5038757;28;20106;-83
2021/04/26 15:21:09;;;;;;;4.50;2.05;;;14.30;83.00;;;;;;5038533;28;20045;-82
2021/04/26 15:23:36;;;;;;;3.83;2.05;;;14.40;84.80;;;;;;5038166;28;20057;-82
2021/04/26 15:26:03;;;;;;;5.07;2.15;;;14.50;76.70;;;;;;5038507;28;20421;-82
2021/04/26 15:28:29;;;;;;;4.82;2.05;;;14.50;81.00;;;;;;5038349;28;20056;-82
2021/04/26 15:30:56;;;;;;;4.03;2.20;;;14.40;77.80;;;;;;5038210;28;20056;-83
2021/04/26 15:33:23;;;;;;;8.43;2.95;;;14.40;75.30;;;;;;5038522;28;20060;-82
2021/04/26 15:35:51;;;;;;;3.88;2.50;;;14.40;79.10;;;;;;5038156;28;20057;-82
2021/04/26 15:38:18;;;;;;;4.45;2.35;;;14.40;83.70;;;;;;5038122;28;20055;-82
2021/04/26 15:40:45;;;;;;;5.47;2.58;;;14.40;84.40;;;;;;5038090;28;20055;-82
2021/04/26 15:43:12;;;;;;;3.90;2.55;;;14.50;83.90;;;;;;5037850;28;20457;-83
2021/04/26 15:45:39;;;;;;;5.53;2.42;;;14.40;81.50;;;;;;5038287;28;20053;-84
2021/04/26 15:48:07;;;;;;;6.03;2.08;;;14.40;82.20;;;;;;5038182;28;20057;-85
2021/04/26 15:50:34;;;;;;;4.70;2.67;;;14.40;80.50;;;;;;5037912;28;20177;-84
2021/04/26 15:53:01;;;;;;;4.40;2.67;;;14.40;81.20;;;;;;5037871;28;20053;-85
2021/04/26 15:55:28;;;;;;;4.68;2.22;;;14.40;86.60;;;;;;5037867;28;20132;-84
2021/04/26 15:57:55;;;;;;;7.50;2.95;;;14.40;84.80;;;;;;5037964;28;20071;-84
2021/04/26 16:00:22;;;;;;;3.58;1.77;;;14.30;83.80;;;;;;5037706;28;20046;-84